sensor_id;sensor_type;location;lat;lon;timestamp;temperature;humidity
6244;DHT22;3155;49.940;8.450;2023-04-25T00:00:57;6.70;47.90
6244;DHT22;3155;49.940;8.450;2023-04-25T00:03:24;6.70;57.20
6244;DHT22;3155;49.940;8.450;2023-04-25T00:06:16;6.70;64.20
6244;DHT22;3155;49.940;8.450;2023-04-25T00:08:47;6.70;67.10
6244;DHT22;3155;49.940;8.450;2023-04-25T00:11:14;6.70;73.70
6244;DHT22;3155;49.940;8.450;2023-04-25T00:13:42;6.70;81.20
6244;DHT22;3155;49.940;8.450;2023-04-25T00:16:09;6.70;83.80
6244;DHT22;3155;49.940;8.450;2023-04-25T00:18:35;6.70;84.20
6244;DHT22;3155;49.940;8.450;2023-04-25T00:21:09;6.70;88.70
6244;DHT22;3155;49.940;8.450;2023-04-25T00:23:36;6.70;90.80
6244;DHT22;3155;49.940;8.450;2023-04-25T00:26:07;6.70;93.70
6244;DHT22;3155;49.940;8.450;2023-04-25T00:28:36;6.80;95.70
6244;DHT22;3155;49.940;8.450;2023-04-25T00:31:07;6.80;95.50
6244;DHT22;3155;49.940;8.450;2023-04-25T00:33:40;6.80;97.90
6244;DHT22;3155;49.940;8.450;2023-04-25T00:36:07;6.80;99.90
6244;DHT22;3155;49.940;8.450;2023-04-25T00:38:34;6.70;99.90
6244;DHT22;3155;49.940;8.450;2023-04-25T00:41:00;6.80;99.90
6244;DHT22;3155;49.940;8.450;2023-04-25T00:43:52;6.80;99.90
6244;DHT22;3155;49.940;8.450;2023-04-25T00:46:44;6.80;99.90
6244;DHT22;3155;49.940;8.450;2023-04-25T00:49:17;6.80;99.90
6244;DHT22;3155;49.940;8.450;2023-04-25T00:51:48;6.80;99.90
6244;DHT22;3155;49.940;8.450;2023-04-25T00:54:20;6.80;99.90
6244;DHT22;3155;49.940;8.450;2023-04-25T00:57:12;6.80;99.90
6244;DHT22;3155;49.940;8.450;2023-04-25T00:59:45;6.80;99.90
6244;DHT22;3155;49.940;8.450;2023-04-25T01:02:13;6.80;99.90
6244;DHT22;3155;49.940;8.450;2023-04-25T01:04:39;6.80;99.90
6244;DHT22;3155;49.940;8.450;2023-04-25T01:07:06;6.90;99.90
6244;DHT22;3155;49.940;8.450;2023-04-25T01:09:33;6.80;99.90
6244;DHT22;3155;49.940;8.450;2023-04-25T01:12:00;6.80;99.90
6244;DHT22;3155;49.940;8.450;2023-04-25T01:14:27;6.80;99.90
6244;DHT22;3155;49.940;8.450;2023-04-25T01:16:54;6.80;99.90
6244;DHT22;3155;49.940;8.450;2023-04-25T01:19:21;6.80;99.90
6244;DHT22;3155;49.940;8.450;2023-04-25T01:21:48;6.80;99.90
6244;DHT22;3155;49.940;8.450;2023-04-25T01:24:14;6.80;99.90
6244;DHT22;3155;49.940;8.450;2023-04-25T01:26:42;6.80;99.90
6244;DHT22;3155;49.940;8.450;2023-04-25T01:29:17;6.80;99.90
6244;DHT22;3155;49.940;8.450;2023-04-25T01:31:44;6.90;99.90
6244;DHT22;3155;49.940;8.450;2023-04-25T01:34:12;6.80;99.90
6244;DHT22;3155;49.940;8.450;2023-04-25T01:36:39;6.80;99.90
6244;DHT22;3155;49.940;8.450;2023-04-25T01:39:07;6.80;99.90
6244;DHT22;3155;49.940;8.450;2023-04-25T01:41:34;6.80;99.90
6244;DHT22;3155;49.940;8.450;2023-04-25T01:44:04;6.80;99.90
6244;DHT22;3155;49.940;8.450;2023-04-25T01:46:31;6.80;99.90
6244;DHT22;3155;49.940;8.450;2023-04-25T01:48:58;6.80;99.90
6244;DHT22;3155;49.940;8.450;2023-04-25T01:51:24;6.70;99.90
6244;DHT22;3155;49.940;8.450;2023-04-25T01:53:52;6.70;99.90
6244;DHT22;3155;49.940;8.450;2023-04-25T01:56:19;6.70;99.90
6244;DHT22;3155;49.940;8.450;2023-04-25T01:58:45;6.70;99.90
6244;DHT22;3155;49.940;8.450;2023-04-25T02:01:12;6.70;99.90
6244;DHT22;3155;49.940;8.450;2023-04-25T02:03:39;6.70;99.90
6244;DHT22;3155;49.940;8.450;2023-04-25T02:06:06;6.70;99.90
6244;DHT22;3155;49.940;8.450;2023-04-25T02:08:35;6.70;99.90
6244;DHT22;3155;49.940;8.450;2023-04-25T02:11:03;6.60;99.90
6244;DHT22;3155;49.940;8.450;2023-04-25T02:13:30;6.70;99.90
6244;DHT22;3155;49.940;8.450;2023-04-25T02:15:57;6.60;99.90
6244;DHT22;3155;49.940;8.450;2023-04-25T02:18:26;6.60;99.90
6244;DHT22;3155;49.940;8.450;2023-04-25T02:20:53;6.60;99.90
6244;DHT22;3155;49.940;8.450;2023-04-25T02:23:20;6.60;99.90
6244;DHT22;3155;49.940;8.450;2023-04-25T02:25:47;6.60;99.90
6244;DHT22;3155;49.940;8.450;2023-04-25T02:28:14;6.60;99.90
6244;DHT22;3155;49.940;8.450;2023-04-25T02:30:41;6.60;99.90
6244;DHT22;3155;49.940;8.450;2023-04-25T02:33:08;6.60;99.90
6244;DHT22;3155;49.940;8.450;2023-04-25T02:35:34;6.50;99.90
6244;DHT22;3155;49.940;8.450;2023-04-25T02:38:01;6.50;99.90
6244;DHT22;3155;49.940;8.450;2023-04-25T02:40:28;6.50;99.90
6244;DHT22;3155;49.940;8.450;2023-04-25T02:42:55;6.50;99.90
6244;DHT22;3155;49.940;8.450;2023-04-25T02:45:21;6.50;99.90
6244;DHT22;3155;49.940;8.450;2023-04-25T02:47:48;6.50;99.90
6244;DHT22;3155;49.940;8.450;2023-04-25T02:50:15;6.50;99.90
6244;DHT22;3155;49.940;8.450;2023-04-25T02:52:41;6.50;99.90
6244;DHT22;3155;49.940;8.450;2023-04-25T02:55:08;6.50;99.90
6244;DHT22;3155;49.940;8.450;2023-04-25T02:57:35;6.50;99.90
6244;DHT22;3155;49.940;8.450;2023-04-25T03:00:02;6.50;99.90
6244;DHT22;3155;49.940;8.450;2023-04-25T03:02:36;6.40;99.90
6244;DHT22;3155;49.940;8.450;2023-04-25T03:05:04;6.40;99.90
6244;DHT22;3155;49.940;8.450;2023-04-25T03:07:31;6.40;99.90
6244;DHT22;3155;49.940;8.450;2023-04-25T03:09:57;6.40;99.90
6244;DHT22;3155;49.940;8.450;2023-04-25T03:12:24;6.40;99.90
6244;DHT22;3155;49.940;8.450;2023-04-25T03:14:51;6.40;99.90
6244;DHT22;3155;49.940;8.450;2023-04-25T03:17:17;6.30;99.90
6244;DHT22;3155;49.940;8.450;2023-04-25T03:19:44;6.30;99.90
6244;DHT22;3155;49.940;8.450;2023-04-25T03:22:12;6.30;99.90
6244;DHT22;3155;49.940;8.450;2023-04-25T03:24:39;6.30;99.90
6244;DHT22;3155;49.940;8.450;2023-04-25T03:27:05;6.40;99.90
6244;DHT22;3155;49.940;8.450;2023-04-25T03:29:34;6.40;99.90
6244;DHT22;3155;49.940;8.450;2023-04-25T03:32:00;6.30;99.90
6244;DHT22;3155;49.940;8.450;2023-04-25T03:34:27;6.30;99.90
6244;DHT22;3155;49.940;8.450;2023-04-25T03:36:54;6.30;99.90
6244;DHT22;3155;49.940;8.450;2023-04-25T03:39:21;6.30;99.90
6244;DHT22;3155;49.940;8.450;2023-04-25T03:41:48;6.30;99.90
6244;DHT22;3155;49.940;8.450;2023-04-25T03:44:15;6.30;99.90
6244;DHT22;3155;49.940;8.450;2023-04-25T03:46:41;6.20;99.90
6244;DHT22;3155;49.940;8.450;2023-04-25T03:49:08;6.20;99.90
6244;DHT22;3155;49.940;8.450;2023-04-25T03:51:35;6.20;99.90
6244;DHT22;3155;49.940;8.450;2023-04-25T03:54:02;6.30;99.90
6244;DHT22;3155;49.940;8.450;2023-04-25T03:56:32;6.30;99.90
6244;DHT22;3155;49.940;8.450;2023-04-25T03:58:59;6.30;99.90
6244;DHT22;3155;49.940;8.450;2023-04-25T04:01:28;6.30;99.90
6244;DHT22;3155;49.940;8.450;2023-04-25T04:03:55;6.30;99.90
6244;DHT22;3155;49.940;8.450;2023-04-25T04:06:22;6.20;99.90
6244;DHT22;3155;49.940;8.450;2023-04-25T04:08:49;6.30;99.90
6244;DHT22;3155;49.940;8.450;2023-04-25T04:11:16;6.30;99.90
6244;DHT22;3155;49.940;8.450;2023-04-25T04:13:45;6.30;99.90
6244;DHT22;3155;49.940;8.450;2023-04-25T04:16:12;6.40;99.90
6244;DHT22;3155;49.940;8.450;2023-04-25T04:18:39;6.30;99.90
6244;DHT22;3155;49.940;8.450;2023-04-25T04:21:05;6.40;99.90
6244;DHT22;3155;49.940;8.450;2023-04-25T04:23:32;6.40;99.90
6244;DHT22;3155;49.940;8.450;2023-04-25T04:26:00;6.40;99.90
6244;DHT22;3155;49.940;8.450;2023-04-25T04:28:27;6.40;99.90
6244;DHT22;3155;49.940;8.450;2023-04-25T04:30:54;6.40;99.90
6244;DHT22;3155;49.940;8.450;2023-04-25T04:33:22;6.30;99.90
6244;DHT22;3155;49.940;8.450;2023-04-25T04:35:51;6.30;99.90
6244;DHT22;3155;49.940;8.450;2023-04-25T04:38:18;6.20;99.90
6244;DHT22;3155;49.940;8.450;2023-04-25T04:40:46;6.20;99.90
6244;DHT22;3155;49.940;8.450;2023-04-25T04:43:14;6.20;99.90
6244;DHT22;3155;49.940;8.450;2023-04-25T04:45:43;6.20;99.90
6244;DHT22;3155;49.940;8.450;2023-04-25T04:48:11;6.20;1.00
6244;DHT22;3155;49.940;8.450;2023-04-25T04:50:42;6.20;99.90
6244;DHT22;3155;49.940;8.450;2023-04-25T04:53:09;6.30;99.90
6244;DHT22;3155;49.940;8.450;2023-04-25T04:55:36;6.30;99.90
6244;DHT22;3155;49.940;8.450;2023-04-25T04:58:02;6.30;99.90
6244;DHT22;3155;49.940;8.450;2023-04-25T05:00:29;6.30;99.90
6244;DHT22;3155;49.940;8.450;2023-04-25T05:02:56;6.30;1.00
6244;DHT22;3155;49.940;8.450;2023-04-25T05:05:23;6.30;99.90
6244;DHT22;3155;49.940;8.450;2023-04-25T05:07:50;6.30;99.90
6244;DHT22;3155;49.940;8.450;2023-04-25T05:10:18;6.30;99.90
6244;DHT22;3155;49.940;8.450;2023-04-25T05:12:45;6.30;99.90
6244;DHT22;3155;49.940;8.450;2023-04-25T05:15:14;6.30;99.90
6244;DHT22;3155;49.940;8.450;2023-04-25T05:17:41;6.30;99.90
6244;DHT22;3155;49.940;8.450;2023-04-25T05:20:08;6.30;99.90
6244;DHT22;3155;49.940;8.450;2023-04-25T05:22:37;6.30;99.90
6244;DHT22;3155;49.940;8.450;2023-04-25T05:25:04;6.40;99.90
6244;DHT22;3155;49.940;8.450;2023-04-25T05:27:31;6.40;99.90
6244;DHT22;3155;49.940;8.450;2023-04-25T05:29:59;6.50;99.90
6244;DHT22;3155;49.940;8.450;2023-04-25T05:32:26;6.70;99.90
6244;DHT22;3155;49.940;8.450;2023-04-25T05:34:53;7.00;99.90
6244;DHT22;3155;49.940;8.450;2023-04-25T05:37:20;7.20;99.90
6244;DHT22;3155;49.940;8.450;2023-04-25T05:39:47;7.40;99.90
6244;DHT22;3155;49.940;8.450;2023-04-25T05:42:14;7.50;99.90
6244;DHT22;3155;49.940;8.450;2023-04-25T05:44:40;7.60;99.90
6244;DHT22;3155;49.940;8.450;2023-04-25T05:47:07;7.70;99.90
6244;DHT22;3155;49.940;8.450;2023-04-25T05:49:34;7.90;99.90
6244;DHT22;3155;49.940;8.450;2023-04-25T05:52:04;7.90;99.90
6244;DHT22;3155;49.940;8.450;2023-04-25T05:54:31;7.80;99.90
6244;DHT22;3155;49.940;8.450;2023-04-25T05:56:58;7.90;99.90
6244;DHT22;3155;49.940;8.450;2023-04-25T05:59:25;7.80;99.90
6244;DHT22;3155;49.940;8.450;2023-04-25T06:01:55;7.80;99.90
6244;DHT22;3155;49.940;8.450;2023-04-25T06:04:25;7.80;99.90
6244;DHT22;3155;49.940;8.450;2023-04-25T06:06:52;7.90;99.90
6244;DHT22;3155;49.940;8.450;2023-04-25T06:09:21;8.00;99.90
6244;DHT22;3155;49.940;8.450;2023-04-25T06:11:49;8.10;99.90
6244;DHT22;3155;49.940;8.450;2023-04-25T06:14:18;8.20;99.90
6244;DHT22;3155;49.940;8.450;2023-04-25T06:16:45;8.20;99.90
6244;DHT22;3155;49.940;8.450;2023-04-25T06:19:11;8.30;99.90
6244;DHT22;3155;49.940;8.450;2023-04-25T06:21:38;8.50;99.90
6244;DHT22;3155;49.940;8.450;2023-04-25T06:24:05;8.80;99.90
6244;DHT22;3155;49.940;8.450;2023-04-25T06:26:31;8.90;99.90
6244;DHT22;3155;49.940;8.450;2023-04-25T06:28:58;9.00;99.90
6244;DHT22;3155;49.940;8.450;2023-04-25T06:31:25;9.00;99.90
6244;DHT22;3155;49.940;8.450;2023-04-25T06:33:52;9.10;99.90
6244;DHT22;3155;49.940;8.450;2023-04-25T06:36:21;9.40;99.90
6244;DHT22;3155;49.940;8.450;2023-04-25T06:38:55;9.70;99.90
6244;DHT22;3155;49.940;8.450;2023-04-25T06:41:24;9.90;99.90
6244;DHT22;3155;49.940;8.450;2023-04-25T06:43:51;9.80;99.90
6244;DHT22;3155;49.940;8.450;2023-04-25T06:46:18;9.70;99.90
6244;DHT22;3155;49.940;8.450;2023-04-25T06:48:45;9.80;99.90
6244;DHT22;3155;49.940;8.450;2023-04-25T06:51:15;9.90;99.90
6244;DHT22;3155;49.940;8.450;2023-04-25T06:53:42;10.20;99.90
6244;DHT22;3155;49.940;8.450;2023-04-25T06:56:09;10.60;99.90
6244;DHT22;3155;49.940;8.450;2023-04-25T06:58:36;10.90;99.90
6244;DHT22;3155;49.940;8.450;2023-04-25T07:01:04;11.30;99.90
6244;DHT22;3155;49.940;8.450;2023-04-25T07:03:31;11.70;99.90
6244;DHT22;3155;49.940;8.450;2023-04-25T07:05:58;11.80;99.90
6244;DHT22;3155;49.940;8.450;2023-04-25T07:08:25;11.70;99.90
6244;DHT22;3155;49.940;8.450;2023-04-25T07:10:51;11.70;99.90
6244;DHT22;3155;49.940;8.450;2023-04-25T07:13:18;11.80;99.90
6244;DHT22;3155;49.940;8.450;2023-04-25T07:15:45;11.80;99.90
6244;DHT22;3155;49.940;8.450;2023-04-25T07:18:12;12.10;99.90
6244;DHT22;3155;49.940;8.450;2023-04-25T07:20:38;12.30;99.90
6244;DHT22;3155;49.940;8.450;2023-04-25T07:23:05;12.60;99.90
6244;DHT22;3155;49.940;8.450;2023-04-25T07:25:32;12.40;99.90
6244;DHT22;3155;49.940;8.450;2023-04-25T07:27:59;12.10;99.90
6244;DHT22;3155;49.940;8.450;2023-04-25T07:30:25;11.90;99.90
6244;DHT22;3155;49.940;8.450;2023-04-25T07:32:52;12.00;99.90
6244;DHT22;3155;49.940;8.450;2023-04-25T07:35:20;12.80;99.90
6244;DHT22;3155;49.940;8.450;2023-04-25T07:37:47;13.90;99.90
6244;DHT22;3155;49.940;8.450;2023-04-25T07:40:14;13.80;99.90
6244;DHT22;3155;49.940;8.450;2023-04-25T07:42:44;13.40;99.90
6244;DHT22;3155;49.940;8.450;2023-04-25T07:45:11;12.70;99.90
6244;DHT22;3155;49.940;8.450;2023-04-25T07:47:37;12.00;99.90
6244;DHT22;3155;49.940;8.450;2023-04-25T07:50:07;11.60;99.90
6244;DHT22;3155;49.940;8.450;2023-04-25T07:52:34;11.60;99.90
6244;DHT22;3155;49.940;8.450;2023-04-25T07:55:01;12.00;99.90
6244;DHT22;3155;49.940;8.450;2023-04-25T07:57:29;12.20;99.90
6244;DHT22;3155;49.940;8.450;2023-04-25T07:59:56;12.60;99.90
6244;DHT22;3155;49.940;8.450;2023-04-25T08:02:22;13.00;99.90
6244;DHT22;3155;49.940;8.450;2023-04-25T08:04:49;13.00;99.90
6244;DHT22;3155;49.940;8.450;2023-04-25T08:07:16;13.30;99.90
6244;DHT22;3155;49.940;8.450;2023-04-25T08:09:43;13.60;99.90
6244;DHT22;3155;49.940;8.450;2023-04-25T08:12:10;14.00;99.90
6244;DHT22;3155;49.940;8.450;2023-04-25T08:14:37;14.10;99.90
6244;DHT22;3155;49.940;8.450;2023-04-25T08:17:06;14.50;99.90
6244;DHT22;3155;49.940;8.450;2023-04-25T08:19:33;14.20;99.90
6244;DHT22;3155;49.940;8.450;2023-04-25T08:22:00;13.40;99.90
6244;DHT22;3155;49.940;8.450;2023-04-25T08:24:26;13.20;99.90
6244;DHT22;3155;49.940;8.450;2023-04-25T08:26:53;13.50;99.90
6244;DHT22;3155;49.940;8.450;2023-04-25T08:29:20;14.10;99.90
6244;DHT22;3155;49.940;8.450;2023-04-25T08:31:47;14.50;99.90
6244;DHT22;3155;49.940;8.450;2023-04-25T08:34:14;14.90;99.90
6244;DHT22;3155;49.940;8.450;2023-04-25T08:36:41;14.60;99.90
6244;DHT22;3155;49.940;8.450;2023-04-25T08:39:11;14.30;99.90
6244;DHT22;3155;49.940;8.450;2023-04-25T08:41:42;14.50;99.90
6244;DHT22;3155;49.940;8.450;2023-04-25T08:44:11;14.60;99.90
6244;DHT22;3155;49.940;8.450;2023-04-25T08:46:38;15.00;99.90
6244;DHT22;3155;49.940;8.450;2023-04-25T08:49:13;15.30;99.90
6244;DHT22;3155;49.940;8.450;2023-04-25T08:51:45;15.00;99.90
6244;DHT22;3155;49.940;8.450;2023-04-25T08:54:17;14.90;99.90
6244;DHT22;3155;49.940;8.450;2023-04-25T08:57:02;15.00;99.90
6244;DHT22;3155;49.940;8.450;2023-04-25T08:59:31;14.60;99.90
6244;DHT22;3155;49.940;8.450;2023-04-25T09:02:06;13.60;99.90
6244;DHT22;3155;49.940;8.450;2023-04-25T09:04:35;13.00;99.90
6244;DHT22;3155;49.940;8.450;2023-04-25T09:07:04;12.80;99.90
6244;DHT22;3155;49.940;8.450;2023-04-25T09:09:31;13.00;99.90
6244;DHT22;3155;49.940;8.450;2023-04-25T09:11:59;13.40;99.90
6244;DHT22;3155;49.940;8.450;2023-04-25T09:14:31;13.60;99.90
6244;DHT22;3155;49.940;8.450;2023-04-25T09:17:03;13.70;99.90
6244;DHT22;3155;49.940;8.450;2023-04-25T09:19:36;13.40;99.90
6244;DHT22;3155;49.940;8.450;2023-04-25T09:22:07;12.90;99.90
6244;DHT22;3155;49.940;8.450;2023-04-25T09:27:08;12.00;99.90
6244;DHT22;3155;49.940;8.450;2023-04-25T09:29:40;11.90;99.90
6244;DHT22;3155;49.940;8.450;2023-04-25T09:34:44;13.80;99.90
6244;DHT22;3155;49.940;8.450;2023-04-25T09:37:12;14.70;99.90
6244;DHT22;3155;49.940;8.450;2023-04-25T09:39:39;15.60;99.90
6244;DHT22;3155;49.940;8.450;2023-04-25T09:42:06;15.60;99.10
6244;DHT22;3155;49.940;8.450;2023-04-25T09:44:33;15.10;99.10
6244;DHT22;3155;49.940;8.450;2023-04-25T09:46:59;14.50;99.30
6244;DHT22;3155;49.940;8.450;2023-04-25T09:49:27;14.00;99.50
6244;DHT22;3155;49.940;8.450;2023-04-25T09:51:58;13.70;99.80
6244;DHT22;3155;49.940;8.450;2023-04-25T09:54:27;13.20;99.50
6244;DHT22;3155;49.940;8.450;2023-04-25T09:56:54;13.10;99.90
6244;DHT22;3155;49.940;8.450;2023-04-25T09:59:21;13.10;99.90
6244;DHT22;3155;49.940;8.450;2023-04-25T10:01:52;13.30;99.90
6244;DHT22;3155;49.940;8.450;2023-04-25T10:04:24;13.50;99.90
6244;DHT22;3155;49.940;8.450;2023-04-25T10:06:59;13.40;99.70
6244;DHT22;3155;49.940;8.450;2023-04-25T10:09:29;13.20;99.70
6244;DHT22;3155;49.940;8.450;2023-04-25T10:11:58;13.20;99.90
6244;DHT22;3155;49.940;8.450;2023-04-25T10:14:31;13.40;99.90
6244;DHT22;3155;49.940;8.450;2023-04-25T10:16:59;13.50;99.90
6244;DHT22;3155;49.940;8.450;2023-04-25T10:19:27;13.60;99.90
6244;DHT22;3155;49.940;8.450;2023-04-25T10:22:44;13.70;99.90
6244;DHT22;3155;49.940;8.450;2023-04-25T10:25:04;13.70;99.90
6244;DHT22;3155;49.940;8.450;2023-04-25T10:27:35;13.40;99.80
6244;DHT22;3155;49.940;8.450;2023-04-25T10:30:07;13.10;99.90
6244;DHT22;3155;49.940;8.450;2023-04-25T10:32:37;12.80;99.90
6244;DHT22;3155;49.940;8.450;2023-04-25T10:35:16;12.60;99.90
6244;DHT22;3155;49.940;8.450;2023-04-25T10:38:04;12.20;99.90
6244;DHT22;3155;49.940;8.450;2023-04-25T10:40:32;11.70;99.90
6244;DHT22;3155;49.940;8.450;2023-04-25T10:46:28;12.10;99.90
6244;DHT22;3155;49.940;8.450;2023-04-25T10:49:02;12.60;99.90
6244;DHT22;3155;49.940;8.450;2023-04-25T10:51:31;13.50;99.90
6244;DHT22;3155;49.940;8.450;2023-04-25T10:54:22;14.40;99.90
6244;DHT22;3155;49.940;8.450;2023-04-25T10:56:51;15.40;99.90
6244;DHT22;3155;49.940;8.450;2023-04-25T10:59:19;15.40;99.10
6244;DHT22;3155;49.940;8.450;2023-04-25T11:01:51;15.40;98.80
6244;DHT22;3155;49.940;8.450;2023-04-25T11:04:20;15.10;97.50
6244;DHT22;3155;49.940;8.450;2023-04-25T11:07:10;15.00;98.20
6244;DHT22;3155;49.940;8.450;2023-04-25T11:09:45;15.20;98.60
6244;DHT22;3155;49.940;8.450;2023-04-25T11:12:12;15.00;98.60
6244;DHT22;3155;49.940;8.450;2023-04-25T11:14:39;14.70;97.40
6244;DHT22;3155;49.940;8.450;2023-04-25T11:17:07;14.20;97.70
6244;DHT22;3155;49.940;8.450;2023-04-25T11:19:35;14.10;98.40
6244;DHT22;3155;49.940;8.450;2023-04-25T11:22:02;14.20;98.60
6244;DHT22;3155;49.940;8.450;2023-04-25T11:24:31;14.30;98.20
6244;DHT22;3155;49.940;8.450;2023-04-25T11:27:01;14.40;98.30
6244;DHT22;3155;49.940;8.450;2023-04-25T11:29:30;14.30;97.70
6244;DHT22;3155;49.940;8.450;2023-04-25T11:31:57;14.20;98.30
6244;DHT22;3155;49.940;8.450;2023-04-25T11:34:25;14.30;99.10
6244;DHT22;3155;49.940;8.450;2023-04-25T11:36:53;14.40;97.30
6244;DHT22;3155;49.940;8.450;2023-04-25T11:39:20;14.20;97.60
6244;DHT22;3155;49.940;8.450;2023-04-25T11:41:47;14.00;97.60
6244;DHT22;3155;49.940;8.450;2023-04-25T11:44:18;13.80;97.80
6244;DHT22;3155;49.940;8.450;2023-04-25T11:46:46;14.00;97.80
6244;DHT22;3155;49.940;8.450;2023-04-25T11:49:20;13.90;98.00
6244;DHT22;3155;49.940;8.450;2023-04-25T11:51:48;13.80;97.90
6244;DHT22;3155;49.940;8.450;2023-04-25T11:54:17;13.70;98.00
6244;DHT22;3155;49.940;8.450;2023-04-25T11:56:45;13.40;98.30
6244;DHT22;3155;49.940;8.450;2023-04-25T11:59:15;13.00;98.00
6244;DHT22;3155;49.940;8.450;2023-04-25T12:01:48;12.60;98.10
6244;DHT22;3155;49.940;8.450;2023-04-25T12:04:23;12.60;98.30
6244;DHT22;3155;49.940;8.450;2023-04-25T12:06:53;12.50;98.40
6244;DHT22;3155;49.940;8.450;2023-04-25T12:09:28;12.40;98.50
6244;DHT22;3155;49.940;8.450;2023-04-25T12:11:57;12.10;98.50
6244;DHT22;3155;49.940;8.450;2023-04-25T12:16:56;12.00;99.00
6244;DHT22;3155;49.940;8.450;2023-04-25T12:19:24;12.10;99.60
6244;DHT22;3155;49.940;8.450;2023-04-25T12:21:52;12.20;98.80
6244;DHT22;3155;49.940;8.450;2023-04-25T12:24:26;12.30;98.70
6244;DHT22;3155;49.940;8.450;2023-04-25T12:27:03;12.30;98.20
6244;DHT22;3155;49.940;8.450;2023-04-25T12:29:32;12.10;98.30
6244;DHT22;3155;49.940;8.450;2023-04-25T12:32:16;12.20;98.70
6244;DHT22;3155;49.940;8.450;2023-04-25T12:34:43;12.40;98.50
6244;DHT22;3155;49.940;8.450;2023-04-25T12:37:12;12.80;98.30
6244;DHT22;3155;49.940;8.450;2023-04-25T12:39:39;13.40;98.70
6244;DHT22;3155;49.940;8.450;2023-04-25T12:42:06;14.00;99.00
6244;DHT22;3155;49.940;8.450;2023-04-25T12:44:35;14.50;97.80
6244;DHT22;3155;49.940;8.450;2023-04-25T12:47:04;14.70;97.90
6244;DHT22;3155;49.940;8.450;2023-04-25T12:49:32;14.90;99.90
6244;DHT22;3155;49.940;8.450;2023-04-25T12:52:03;15.00;99.90
6244;DHT22;3155;49.940;8.450;2023-04-25T12:54:30;15.10;99.00
6244;DHT22;3155;49.940;8.450;2023-04-25T12:56:57;15.00;98.40
6244;DHT22;3155;49.940;8.450;2023-04-25T12:59:24;14.90;98.00
6244;DHT22;3155;49.940;8.450;2023-04-25T13:01:51;14.90;96.90
6244;DHT22;3155;49.940;8.450;2023-04-25T13:04:19;14.80;96.90
6244;DHT22;3155;49.940;8.450;2023-04-25T13:06:47;14.90;96.70
6244;DHT22;3155;49.940;8.450;2023-04-25T13:09:14;16.00;97.40
6244;DHT22;3155;49.940;8.450;2023-04-25T13:11:45;16.90;96.50
6244;DHT22;3155;49.940;8.450;2023-04-25T13:14:12;16.80;95.30
6244;DHT22;3155;49.940;8.450;2023-04-25T13:16:42;16.10;94.90
6244;DHT22;3155;49.940;8.450;2023-04-25T13:19:14;15.40;94.70
6244;DHT22;3155;49.940;8.450;2023-04-25T13:21:40;14.70;95.10
6244;DHT22;3155;49.940;8.450;2023-04-25T13:24:07;14.00;94.90
6244;DHT22;3155;49.940;8.450;2023-04-25T13:26:34;13.30;95.20
6244;DHT22;3155;49.940;8.450;2023-04-25T13:29:01;13.20;96.00
6244;DHT22;3155;49.940;8.450;2023-04-25T13:31:31;13.20;96.50
6244;DHT22;3155;49.940;8.450;2023-04-25T13:34:05;13.20;96.30
6244;DHT22;3155;49.940;8.450;2023-04-25T13:36:36;13.10;96.30
6244;DHT22;3155;49.940;8.450;2023-04-25T13:39:03;13.30;96.40
6244;DHT22;3155;49.940;8.450;2023-04-25T13:41:32;13.60;96.40
6244;DHT22;3155;49.940;8.450;2023-04-25T13:43:58;13.80;96.00
6244;DHT22;3155;49.940;8.450;2023-04-25T13:46:28;13.70;95.70
6244;DHT22;3155;49.940;8.450;2023-04-25T13:49:15;13.60;95.50
6244;DHT22;3155;49.940;8.450;2023-04-25T13:51:42;13.70;95.70
6244;DHT22;3155;49.940;8.450;2023-04-25T13:54:09;13.90;96.40
6244;DHT22;3155;49.940;8.450;2023-04-25T13:56:36;14.00;95.40
6244;DHT22;3155;49.940;8.450;2023-04-25T13:59:02;13.80;95.50
6244;DHT22;3155;49.940;8.450;2023-04-25T14:01:33;13.70;95.60
6244;DHT22;3155;49.940;8.450;2023-04-25T14:04:06;13.60;95.40
6244;DHT22;3155;49.940;8.450;2023-04-25T14:06:34;13.50;95.60
6244;DHT22;3155;49.940;8.450;2023-04-25T14:09:04;13.40;95.10
6244;DHT22;3155;49.940;8.450;2023-04-25T14:11:31;13.50;95.40
6244;DHT22;3155;49.940;8.450;2023-04-25T14:14:01;13.50;95.10
6244;DHT22;3155;49.940;8.450;2023-04-25T14:16:28;13.30;95.10
6244;DHT22;3155;49.940;8.450;2023-04-25T14:19:02;12.90;94.80
6244;DHT22;3155;49.940;8.450;2023-04-25T14:21:29;12.60;95.00
6244;DHT22;3155;49.940;8.450;2023-04-25T14:24:01;12.50;95.10
6244;DHT22;3155;49.940;8.450;2023-04-25T14:26:28;12.60;95.40
6244;DHT22;3155;49.940;8.450;2023-04-25T14:28:57;12.80;95.50
6244;DHT22;3155;49.940;8.450;2023-04-25T14:31:24;13.30;95.30
6244;DHT22;3155;49.940;8.450;2023-04-25T14:33:51;13.30;95.30
6244;DHT22;3155;49.940;8.450;2023-04-25T14:36:18;13.20;95.00
6244;DHT22;3155;49.940;8.450;2023-04-25T14:38:47;13.20;95.40
6244;DHT22;3155;49.940;8.450;2023-04-25T14:41:38;12.90;94.80
6244;DHT22;3155;49.940;8.450;2023-04-25T14:44:09;12.80;94.90
6244;DHT22;3155;49.940;8.450;2023-04-25T14:46:36;12.70;94.30
6244;DHT22;3155;49.940;8.450;2023-04-25T14:49:03;12.70;94.60
6244;DHT22;3155;49.940;8.450;2023-04-25T14:51:32;12.90;94.80
6244;DHT22;3155;49.940;8.450;2023-04-25T14:53:59;13.10;94.50
6244;DHT22;3155;49.940;8.450;2023-04-25T14:56:29;13.20;94.70
6244;DHT22;3155;49.940;8.450;2023-04-25T14:58:58;13.60;94.70
6244;DHT22;3155;49.940;8.450;2023-04-25T15:01:28;15.10;93.60
6244;DHT22;3155;49.940;8.450;2023-04-25T15:03:55;15.40;93.20
6244;DHT22;3155;49.940;8.450;2023-04-25T15:06:29;14.90;92.60
6244;DHT22;3155;49.940;8.450;2023-04-25T15:08:57;14.10;92.60
6244;DHT22;3155;49.940;8.450;2023-04-25T15:11:26;13.40;92.90
6244;DHT22;3155;49.940;8.450;2023-04-25T15:13:53;12.80;92.90
6244;DHT22;3155;49.940;8.450;2023-04-25T15:16:21;12.30;93.30
6244;DHT22;3155;49.940;8.450;2023-04-25T15:18:47;12.00;93.90
6244;DHT22;3155;49.940;8.450;2023-04-25T15:21:14;11.70;93.90
6244;DHT22;3155;49.940;8.450;2023-04-25T15:23:42;11.40;94.30
6244;DHT22;3155;49.940;8.450;2023-04-25T15:26:09;11.20;94.60
6244;DHT22;3155;49.940;8.450;2023-04-25T15:28:40;11.20;95.00
6244;DHT22;3155;49.940;8.450;2023-04-25T15:31:07;11.20;95.30
6244;DHT22;3155;49.940;8.450;2023-04-25T15:33:34;11.50;95.30
6244;DHT22;3155;49.940;8.450;2023-04-25T15:36:01;11.70;95.30
6244;DHT22;3155;49.940;8.450;2023-04-25T15:38:29;11.90;94.80
6244;DHT22;3155;49.940;8.450;2023-04-25T15:40:56;12.20;95.20
6244;DHT22;3155;49.940;8.450;2023-04-25T15:43:23;12.60;95.40
6244;DHT22;3155;49.940;8.450;2023-04-25T15:45:51;13.10;94.90
6244;DHT22;3155;49.940;8.450;2023-04-25T15:48:21;13.80;94.60
6244;DHT22;3155;49.940;8.450;2023-04-25T15:50:49;14.00;94.60
6244;DHT22;3155;49.940;8.450;2023-04-25T15:53:16;14.10;94.10
6244;DHT22;3155;49.940;8.450;2023-04-25T15:55:43;13.60;93.80
6244;DHT22;3155;49.940;8.450;2023-04-25T15:58:10;13.80;94.40
6244;DHT22;3155;49.940;8.450;2023-04-25T16:00:39;14.00;93.90
6244;DHT22;3155;49.940;8.450;2023-04-25T16:03:06;14.10;94.00
6244;DHT22;3155;49.940;8.450;2023-04-25T16:05:38;15.00;93.70
6244;DHT22;3155;49.940;8.450;2023-04-25T16:08:06;15.60;92.90
6244;DHT22;3155;49.940;8.450;2023-04-25T16:10:59;15.50;92.10
6244;DHT22;3155;49.940;8.450;2023-04-25T16:13:26;14.90;91.80
6244;DHT22;3155;49.940;8.450;2023-04-25T16:15:55;14.40;91.70
6244;DHT22;3155;49.940;8.450;2023-04-25T16:18:23;13.70;91.40
6244;DHT22;3155;49.940;8.450;2023-04-25T16:20:52;13.20;92.00
6244;DHT22;3155;49.940;8.450;2023-04-25T16:23:19;12.80;92.00
6244;DHT22;3155;49.940;8.450;2023-04-25T16:25:45;12.50;92.70
6244;DHT22;3155;49.940;8.450;2023-04-25T16:28:13;12.40;93.70
6244;DHT22;3155;49.940;8.450;2023-04-25T16:30:39;12.50;93.50